createdAt,value
2018-06-19T00:01:25.577Z,15.41
2018-06-19T00:03:54.841Z,15.43
2018-06-19T00:06:24.354Z,15.45
2018-06-19T00:08:53.883Z,15.43
2018-06-19T00:11:23.319Z,15.43
2018-06-19T00:13:52.828Z,15.43
2018-06-19T00:16:22.387Z,15.44
2018-06-19T00:18:57.492Z,15.48
2018-06-19T00:21:48.415Z,15.48
2018-06-19T00:24:18.133Z,15.47
2018-06-19T00:26:47.987Z,15.41
2018-06-19T00:29:17.393Z,15.45
2018-06-19T00:31:46.601Z,15.37
2018-06-19T00:34:16.125Z,15.34
2018-06-19T00:36:45.877Z,15.32
2018-06-19T00:39:15.503Z,15.24
2018-06-19T00:41:45.380Z,15.18
2018-06-19T00:44:14.987Z,15.16
2018-06-19T00:46:48.513Z,15.13
2018-06-19T00:49:18.516Z,15.10
2018-06-19T00:51:48.075Z,15.09
2018-06-19T00:54:17.539Z,15.06
2018-06-19T00:56:56.803Z,15.06
2018-06-19T00:59:26.269Z,15.04
2018-06-19T01:01:58.626Z,14.98
2018-06-19T01:04:28.533Z,14.96
2018-06-19T01:06:58.114Z,14.95
2018-06-19T01:09:27.400Z,14.93
2018-06-19T01:11:56.682Z,14.92
2018-06-19T01:14:26.212Z,14.89
2018-06-19T01:16:55.335Z,14.87
2018-06-19T01:19:25.104Z,14.89
2018-06-19T01:21:55.829Z,14.88
2018-06-19T01:24:25.309Z,14.94
2018-06-19T01:26:54.962Z,14.91
2018-06-19T01:29:25.645Z,14.92
2018-06-19T01:31:56.061Z,14.92
2018-06-19T01:34:25.527Z,14.89
2018-06-19T01:36:55.129Z,14.93
2018-06-19T01:39:25.626Z,14.88
2018-06-19T01:41:55.233Z,14.85
2018-06-19T01:44:24.766Z,14.82
2018-06-19T01:46:54.899Z,14.85
2018-06-19T01:49:25.190Z,14.77
2018-06-19T01:51:54.610Z,14.77
2018-06-19T01:54:24.661Z,14.73
2018-06-19T01:56:53.836Z,14.69
2018-06-19T01:59:23.277Z,14.65
2018-06-19T02:01:52.747Z,14.65
2018-06-19T02:04:22.249Z,14.65
2018-06-19T02:06:52.081Z,14.65
2018-06-19T02:09:22.189Z,14.62
2018-06-19T02:11:51.747Z,14.60
2018-06-19T02:14:21.214Z,14.57
2018-06-19T02:16:50.786Z,14.65
2018-06-19T02:19:20.298Z,14.68
2018-06-19T02:21:49.790Z,14.75
2018-06-19T02:24:19.462Z,14.75
2018-06-19T02:26:49.549Z,14.77
2018-06-19T02:29:19.048Z,14.81
2018-06-19T02:31:49.077Z,14.82
2018-06-19T02:34:18.569Z,14.86
2018-06-19T02:36:48.066Z,14.88
2018-06-19T02:39:17.516Z,14.92
2018-06-19T02:41:46.823Z,14.93
2018-06-19T02:44:16.310Z,14.93
2018-06-19T02:46:45.817Z,14.91
2018-06-19T02:49:15.426Z,14.92
2018-06-19T02:51:45.008Z,14.90
2018-06-19T02:54:14.475Z,15.03
2018-06-19T02:56:43.645Z,15.00
2018-06-19T02:59:13.140Z,14.98
2018-06-19T03:01:42.869Z,15.02
2018-06-19T03:04:12.056Z,15.04
2018-06-19T03:06:41.576Z,15.00
2018-06-19T03:09:11.762Z,15.02
2018-06-19T03:11:41.241Z,15.10
2018-06-19T03:14:10.753Z,15.09
2018-06-19T03:16:40.309Z,15.09
2018-06-19T03:19:09.749Z,15.11
2018-06-19T03:21:39.318Z,15.09
2018-06-19T03:24:08.833Z,15.16
2018-06-19T03:26:38.038Z,15.14
2018-06-19T03:29:07.363Z,15.20
2018-06-19T03:31:36.834Z,15.23
2018-06-19T03:34:06.849Z,15.27
2018-06-19T03:36:36.749Z,15.31
2018-06-19T03:39:10.524Z,15.29
2018-06-19T03:41:40.185Z,15.30
2018-06-19T03:44:10.099Z,15.35
2018-06-19T03:46:39.559Z,15.31
2018-06-19T03:49:09.083Z,15.33
2018-06-19T03:51:39.318Z,15.37
2018-06-19T03:54:08.770Z,15.38
2018-06-19T03:56:38.246Z,15.39
2018-06-19T03:59:07.722Z,15.41
2018-06-19T04:01:37.185Z,15.55
2018-06-19T04:04:07.161Z,15.52
2018-06-19T04:06:36.637Z,15.56
2018-06-19T04:09:08.907Z,15.53
2018-06-19T04:11:38.612Z,15.58
2018-06-19T04:14:08.164Z,15.60
2018-06-19T04:16:37.763Z,15.59
2018-06-19T04:19:07.371Z,15.68
2018-06-19T04:21:36.971Z,15.69
2018-06-19T04:24:06.707Z,15.66
2018-06-19T04:26:36.384Z,15.69
2018-06-19T04:29:05.966Z,15.63
2018-06-19T04:31:35.431Z,15.70
2018-06-19T04:34:04.952Z,15.71
2018-06-19T04:36:34.827Z,15.82
2018-06-19T04:39:06.568Z,15.78
2018-06-19T04:41:36.022Z,15.81
2018-06-19T04:44:06.331Z,15.85
2018-06-19T04:46:36.835Z,15.91
2018-06-19T04:49:06.345Z,15.92
2018-06-19T04:51:35.971Z,15.96
2018-06-19T04:54:05.476Z,15.93
2018-06-19T04:56:34.897Z,16.04
2018-06-19T04:59:04.352Z,16.03
2018-06-19T05:01:34.110Z,16.04
2018-06-19T05:04:03.573Z,16.04
2018-06-19T05:06:33.366Z,16.04
2018-06-19T05:09:03.381Z,16.11
2018-06-19T05:11:32.993Z,16.19
2018-06-19T05:14:02.442Z,16.16
2018-06-19T05:16:31.946Z,16.24
2018-06-19T05:19:01.430Z,16.25
2018-06-19T05:21:30.908Z,16.34
2018-06-19T05:24:00.289Z,16.37
2018-06-19T05:26:29.864Z,16.52
2018-06-19T05:29:00.797Z,16.59
2018-06-19T05:31:30.747Z,16.61
2018-06-19T05:34:00.816Z,16.63
2018-06-19T05:36:30.442Z,16.67
2018-06-19T05:38:59.920Z,16.71
2018-06-19T05:41:29.450Z,16.76
2018-06-19T05:43:58.969Z,16.81
2018-06-19T05:46:28.610Z,16.77
2018-06-19T05:48:58.632Z,16.92
2018-06-19T05:51:28.151Z,16.91
2018-06-19T05:53:57.540Z,16.89
2018-06-19T05:56:27.109Z,17.00
2018-06-19T05:58:56.569Z,16.99
2018-06-19T06:01:27.445Z,17.00
2018-06-19T06:05:26.250Z,17.03
2018-06-19T06:07:55.791Z,16.98
2018-06-19T06:10:25.479Z,16.98
2018-06-19T06:12:55.442Z,17.01
2018-06-19T06:15:24.625Z,17.16
2018-06-19T06:17:54.635Z,17.21
2018-06-19T06:20:24.097Z,17.30
2018-06-19T06:22:53.997Z,17.28
2018-06-19T06:25:23.545Z,17.29
2018-06-19T06:27:53.097Z,17.39
2018-06-19T06:30:22.379Z,17.50
2018-06-19T06:32:52.551Z,17.56
2018-06-19T06:35:21.990Z,17.75
2018-06-19T06:37:53.869Z,17.81
2018-06-19T06:40:23.390Z,17.83
2018-06-19T06:42:53.605Z,17.90
2018-06-19T06:45:24.155Z,17.83
2018-06-19T06:47:54.346Z,17.90
2018-06-19T06:50:23.865Z,17.94
2018-06-19T06:52:54.333Z,18.01
2018-06-19T06:55:23.951Z,18.08
2018-06-19T06:57:54.033Z,18.18
2018-06-19T07:00:23.748Z,18.20
2018-06-19T07:02:53.331Z,18.27
2018-06-19T07:05:22.929Z,18.49
2018-06-19T07:07:52.395Z,18.47
2018-06-19T07:10:22.514Z,18.46
2018-06-19T07:12:52.037Z,18.49
2018-06-19T07:15:21.669Z,18.46
2018-06-19T07:17:51.301Z,18.57
2018-06-19T07:20:20.714Z,18.51
2018-06-19T07:22:50.714Z,18.59
2018-06-19T07:25:20.237Z,18.49
2018-06-19T07:27:50.027Z,18.52
2018-06-19T07:30:19.609Z,18.66
2018-06-19T07:32:49.325Z,18.80
2018-06-19T07:35:18.865Z,18.84
2018-06-19T07:37:48.869Z,18.70
2018-06-19T07:40:18.465Z,18.85
2018-06-19T07:42:47.992Z,18.83
2018-06-19T07:45:17.595Z,18.71
2018-06-19T07:47:47.723Z,18.78
2018-06-19T07:50:17.219Z,18.91
2018-06-19T07:52:46.752Z,19.08
2018-06-19T07:55:16.645Z,19.00
2018-06-19T07:57:46.701Z,19.04
2018-06-19T08:00:16.262Z,19.09
2018-06-19T08:02:46.679Z,19.13
2018-06-19T08:05:16.162Z,19.31
2018-06-19T08:07:45.828Z,19.03
2018-06-19T08:10:16.914Z,19.07
2018-06-19T08:12:47.697Z,19.13
2018-06-19T08:15:17.906Z,19.14
2018-06-19T08:17:48.640Z,19.17
2018-06-19T08:20:18.701Z,19.21
2018-06-19T08:22:48.000Z,19.17
2018-06-19T08:26:47.385Z,19.22
2018-06-19T08:29:17.161Z,19.14
2018-06-19T08:31:49.420Z,19.28
2018-06-19T08:34:19.610Z,19.35
2018-06-19T08:36:49.215Z,19.15
2018-06-19T08:39:18.764Z,19.43
2018-06-19T08:41:48.312Z,19.47
2018-06-19T08:44:18.034Z,19.54
2018-06-19T08:46:47.611Z,19.38
2018-06-19T08:49:18.071Z,19.08
2018-06-19T08:51:47.514Z,18.73
2018-06-19T08:54:17.745Z,18.84
2018-06-19T08:56:47.359Z,18.56
2018-06-19T08:59:17.012Z,18.54
2018-06-19T09:01:46.939Z,18.67
2018-06-19T09:04:16.486Z,18.88
2018-06-19T09:06:46.049Z,18.85
2018-06-19T09:09:15.743Z,18.86
2018-06-19T09:11:45.359Z,18.86
2018-06-19T09:14:15.054Z,18.68
2018-06-19T09:16:44.575Z,18.39
2018-06-19T09:19:14.166Z,18.44
2018-06-19T09:21:44.727Z,18.38
2018-06-19T09:24:16.389Z,18.21
2018-06-19T09:26:47.039Z,17.91
2018-06-19T09:29:17.169Z,17.86
2018-06-19T09:31:47.010Z,17.77
2018-06-19T09:34:16.570Z,17.76
2018-06-19T09:36:46.794Z,17.67
2018-06-19T09:39:16.682Z,17.64
2018-06-19T09:41:46.344Z,17.66
2018-06-19T09:44:16.115Z,17.74
2018-06-19T09:46:46.161Z,17.80
2018-06-19T09:49:15.429Z,17.85
2018-06-19T09:51:46.885Z,17.86
2018-06-19T09:54:16.365Z,17.94
2018-06-19T09:56:45.844Z,17.78
2018-06-19T09:59:17.276Z,17.82
2018-06-19T10:01:47.844Z,17.84
2018-06-19T10:04:17.301Z,17.84
2018-06-19T10:06:47.390Z,17.78
2018-06-19T10:09:17.305Z,17.79
2018-06-19T10:11:47.052Z,17.87
2018-06-19T10:14:17.144Z,17.97
2018-06-19T10:16:46.728Z,18.08
2018-06-19T10:19:16.560Z,18.06
2018-06-19T10:21:46.196Z,18.13
2018-06-19T10:24:15.808Z,18.19
2018-06-19T10:26:45.467Z,18.19
2018-06-19T10:29:15.058Z,18.26
2018-06-19T10:31:44.690Z,18.47
2018-06-19T10:34:14.251Z,18.73
2018-06-19T10:36:43.769Z,18.81
2018-06-19T10:39:12.935Z,18.99
2018-06-19T10:41:42.410Z,19.06
2018-06-19T10:44:11.937Z,19.23
2018-06-19T10:46:41.477Z,19.33
2018-06-19T10:49:10.902Z,19.18
2018-06-19T10:51:40.448Z,19.17
2018-06-19T10:54:10.411Z,19.34
2018-06-19T10:56:40.741Z,19.44
2018-06-19T10:59:10.181Z,19.76
2018-06-19T11:01:40.136Z,19.99
2018-06-19T11:04:09.578Z,20.13
2018-06-19T11:06:38.847Z,20.19
2018-06-19T11:09:11.921Z,20.41
2018-06-19T11:11:42.160Z,20.44
2018-06-19T11:14:12.147Z,20.49
2018-06-19T11:16:41.742Z,20.91
2018-06-19T11:19:11.294Z,20.92
2018-06-19T11:21:40.676Z,21.26
2018-06-19T11:24:10.149Z,21.62
2018-06-19T11:26:39.599Z,21.28
2018-06-19T11:29:09.099Z,21.27
2018-06-19T11:31:38.594Z,21.17
2018-06-19T11:34:08.217Z,21.10
2018-06-19T11:36:38.667Z,20.96
2018-06-19T11:39:11.550Z,20.82
2018-06-19T11:41:41.164Z,20.64
2018-06-19T11:44:10.848Z,20.49
2018-06-19T11:46:40.929Z,20.33
2018-06-19T11:49:11.732Z,20.20
2018-06-19T11:51:42.054Z,20.15
2018-06-19T11:54:11.716Z,20.04
2018-06-19T11:56:41.531Z,20.00
2018-06-19T11:59:11.274Z,20.00
2018-06-19T12:01:40.722Z,19.92
2018-06-19T12:04:10.643Z,19.88
2018-06-19T12:06:40.346Z,19.94
2018-06-19T12:09:10.778Z,20.07
2018-06-19T12:11:41.579Z,20.39
2018-06-19T12:14:12.120Z,20.81
2018-06-19T12:16:46.497Z,21.18
2018-06-19T12:19:16.636Z,21.13
2018-06-19T12:21:46.628Z,21.33
2018-06-19T12:24:17.049Z,20.93
2018-06-19T12:26:46.830Z,20.77
2018-06-19T12:29:16.338Z,20.71
2018-06-19T12:31:45.688Z,20.69
2018-06-19T12:34:15.135Z,20.69
2018-06-19T12:36:44.715Z,20.77
2018-06-19T12:39:14.328Z,21.04
2018-06-19T12:41:46.223Z,20.87
2018-06-19T12:44:16.417Z,20.62
2018-06-19T12:46:46.261Z,20.64
2018-06-19T12:50:23.993Z,20.71
2018-06-19T12:54:08.503Z,20.68
2018-06-19T12:56:38.002Z,20.46
2018-06-19T12:59:07.418Z,20.52
2018-06-19T13:01:36.970Z,20.55
2018-06-19T13:04:23.398Z,21.05
2018-06-19T13:06:52.853Z,22.29
2018-06-19T13:09:22.263Z,22.05
2018-06-19T13:11:51.944Z,21.65
2018-06-19T13:14:37.383Z,21.30
2018-06-19T13:17:23.822Z,21.84
2018-06-19T13:20:10.715Z,22.85
2018-06-19T13:22:40.210Z,22.91
2018-06-19T13:25:09.612Z,24.08
2018-06-19T13:27:39.234Z,24.24
2018-06-19T13:30:25.698Z,22.89
2018-06-19T13:32:54.885Z,22.80
2018-06-19T13:35:25.619Z,24.06
2018-06-19T13:37:55.638Z,23.29
2018-06-19T13:41:16.450Z,22.44
2018-06-19T13:44:04.761Z,21.78
2018-06-19T13:46:34.869Z,21.85
2018-06-19T13:49:06.216Z,22.07
2018-06-19T13:51:35.820Z,21.44
2018-06-19T13:54:05.479Z,21.85
2018-06-19T13:57:50.769Z,22.74
2018-06-19T14:00:21.749Z,22.79
2018-06-19T14:02:51.305Z,22.31
2018-06-19T14:05:21.212Z,21.96
2018-06-19T14:08:13.994Z,22.58
2018-06-19T14:11:00.349Z,22.86
2018-06-19T14:13:29.979Z,22.72
2018-06-19T14:16:01.982Z,22.50
2018-06-19T14:18:31.565Z,22.08
2018-06-19T14:21:03.084Z,21.88
2018-06-19T14:23:33.796Z,22.32
2018-06-19T14:26:03.759Z,22.40
2018-06-19T14:28:34.473Z,22.28
2018-06-19T14:31:04.006Z,21.52
2018-06-19T14:33:33.398Z,21.24
2018-06-19T14:36:04.387Z,20.97
2018-06-19T14:38:34.642Z,20.87
2018-06-19T14:41:04.487Z,20.65
2018-06-19T14:43:35.501Z,20.47
2018-06-19T14:46:05.899Z,20.41
2018-06-19T14:48:35.422Z,20.89
2018-06-19T14:51:05.294Z,21.18
2018-06-19T14:53:34.840Z,22.06
2018-06-19T14:56:04.304Z,22.12
2018-06-19T14:58:34.410Z,21.66
2018-06-19T15:01:03.902Z,21.55
2018-06-19T15:03:33.880Z,22.07
2018-06-19T15:06:03.394Z,21.94
2018-06-19T15:08:32.851Z,21.79
2018-06-19T15:11:03.371Z,21.65
2018-06-19T15:13:33.685Z,21.30
2018-06-19T15:16:03.730Z,21.91
2018-06-19T15:18:35.246Z,22.17
2018-06-19T15:21:05.628Z,22.90
2018-06-19T15:23:35.206Z,23.69
2018-06-19T15:26:06.347Z,24.62
2018-06-19T15:28:37.888Z,24.90
2018-06-19T15:31:08.864Z,25.51
2018-06-19T15:33:40.377Z,24.79
2018-06-19T15:36:10.375Z,24.53
2018-06-19T15:38:40.250Z,24.89
2018-06-19T15:41:10.015Z,24.86
2018-06-19T15:43:39.559Z,25.83
2018-06-19T15:46:09.437Z,25.42
2018-06-19T15:48:40.202Z,24.91
2018-06-19T15:51:11.132Z,24.52
2018-06-19T15:53:40.634Z,25.43
2018-06-19T15:56:10.264Z,27.20
2018-06-19T15:58:40.354Z,26.10
2018-06-19T16:01:09.995Z,26.33
2018-06-19T16:03:40.810Z,26.61
2018-06-19T16:06:11.306Z,26.50
2018-06-19T16:08:42.246Z,25.78
2018-06-19T16:11:12.008Z,25.73
2018-06-19T16:13:41.782Z,26.01
2018-06-19T16:16:13.165Z,26.25
2018-06-19T16:18:42.935Z,26.42
2018-06-19T16:21:12.508Z,25.27
2018-06-19T16:23:42.346Z,25.97
2018-06-19T16:26:12.172Z,24.91
2018-06-19T16:28:42.633Z,25.48
2018-06-19T16:31:12.520Z,25.06
2018-06-19T16:33:42.070Z,24.80
2018-06-19T16:36:11.512Z,24.26
2018-06-19T16:38:41.093Z,24.17
2018-06-19T16:41:10.851Z,24.42
2018-06-19T16:43:40.845Z,24.74
2018-06-19T16:46:10.385Z,24.85
2018-06-19T16:48:39.882Z,24.95
2018-06-19T16:51:09.636Z,24.91
2018-06-19T16:53:39.205Z,24.45
2018-06-19T16:56:08.682Z,24.41
2018-06-19T16:58:38.126Z,24.36
2018-06-19T17:01:08.464Z,23.36
2018-06-19T17:03:37.886Z,23.50
2018-06-19T17:06:07.365Z,23.63
2018-06-19T17:08:36.932Z,23.12
2018-06-19T17:11:06.677Z,22.88
2018-06-19T17:13:36.211Z,22.46
2018-06-19T17:16:06.125Z,21.98
2018-06-19T17:18:35.594Z,21.81
2018-06-19T17:21:05.055Z,21.86
2018-06-19T17:23:34.545Z,21.59
2018-06-19T17:26:04.141Z,21.58
2018-06-19T17:28:33.556Z,21.64
2018-06-19T17:31:03.316Z,21.10
2018-06-19T17:33:32.926Z,21.35
2018-06-19T17:36:02.585Z,21.16
2018-06-19T17:38:32.015Z,20.86
2018-06-19T17:41:01.332Z,20.73
2018-06-19T17:43:30.870Z,20.82
2018-06-19T17:46:00.480Z,20.46
2018-06-19T17:48:30.100Z,20.61
2018-06-19T17:51:00.161Z,20.69
2018-06-19T17:53:29.958Z,20.60
2018-06-19T17:56:00.116Z,20.76
2018-06-19T17:58:29.590Z,20.71
2018-06-19T18:00:59.060Z,20.55
2018-06-19T18:03:28.658Z,20.12
2018-06-19T18:05:58.672Z,20.26
2018-06-19T18:08:28.628Z,20.42
2018-06-19T18:12:27.501Z,20.53
2018-06-19T18:14:59.696Z,20.33
2018-06-19T18:17:29.780Z,20.49
2018-06-19T18:19:59.620Z,20.32
2018-06-19T18:22:30.853Z,20.24
2018-06-19T18:25:01.584Z,20.00
2018-06-19T18:27:31.294Z,19.76
2018-06-19T18:30:03.569Z,19.45
2018-06-19T18:32:33.050Z,19.29
2018-06-19T18:35:02.861Z,19.18
2018-06-19T18:37:33.420Z,19.06
2018-06-19T18:40:03.694Z,18.92
2018-06-19T18:42:34.035Z,18.89
2018-06-19T18:45:03.601Z,18.85
2018-06-19T18:47:34.081Z,18.80
2018-06-19T18:50:03.794Z,18.76
2018-06-19T18:52:33.851Z,18.66
2018-06-19T18:55:03.492Z,18.48
2018-06-19T18:57:36.494Z,18.39
2018-06-19T19:00:08.111Z,18.31
2018-06-19T19:02:38.804Z,18.26
2018-06-19T19:05:08.536Z,18.25
2018-06-19T19:07:39.777Z,18.07
2018-06-19T19:10:15.273Z,17.98
2018-06-19T19:12:45.069Z,17.98
2018-06-19T19:15:20.824Z,17.84
2018-06-19T19:17:56.993Z,17.80
2018-06-19T19:20:27.222Z,17.72
2018-06-19T19:22:58.074Z,17.66
2018-06-19T19:25:27.715Z,17.59
2018-06-19T19:28:02.731Z,17.60
2018-06-19T19:30:32.578Z,17.56
2018-06-19T19:33:04.253Z,17.39
2018-06-19T19:35:33.905Z,17.28
2018-06-19T19:38:08.705Z,17.22
2018-06-19T19:40:38.454Z,17.20
2018-06-19T19:43:07.783Z,17.18
2018-06-19T19:45:37.347Z,17.20
2018-06-19T19:48:12.151Z,17.11
2018-06-19T19:50:42.889Z,17.02
2018-06-19T19:53:14.172Z,16.97
2018-06-19T19:55:49.369Z,16.92
2018-06-19T19:58:24.093Z,16.86
2018-06-19T20:00:53.738Z,16.80
2018-06-19T20:03:24.449Z,16.77
2018-06-19T20:05:55.058Z,16.76
2018-06-19T20:08:26.687Z,16.71
2018-06-19T20:10:57.434Z,16.66
2018-06-19T20:13:27.296Z,16.59
2018-06-19T20:15:59.077Z,16.56
2018-06-19T20:18:28.914Z,16.50
2018-06-19T20:20:59.527Z,16.46
2018-06-19T20:23:29.359Z,16.38
2018-06-19T20:25:59.034Z,16.39
2018-06-19T20:28:30.085Z,16.32
2018-06-19T20:30:59.402Z,16.24
2018-06-19T20:33:30.341Z,16.18
2018-06-19T20:36:00.539Z,16.13
2018-06-19T20:38:30.454Z,16.13
2018-06-19T20:40:59.952Z,16.13
2018-06-19T20:43:30.669Z,16.07
2018-06-19T20:46:00.975Z,16.06
2018-06-19T20:48:30.538Z,16.07
2018-06-19T20:50:59.987Z,16.03
2018-06-19T20:53:30.631Z,15.99
2018-06-19T20:56:00.766Z,15.93
2018-06-19T20:58:30.905Z,15.86
2018-06-19T21:01:00.779Z,15.89
2018-06-19T21:03:31.115Z,15.81
2018-06-19T21:06:04.661Z,15.79
2018-06-19T21:08:35.870Z,15.74
2018-06-19T21:11:05.617Z,15.75
2018-06-19T21:13:36.032Z,15.72
2018-06-19T21:16:09.888Z,15.66
2018-06-19T21:18:41.205Z,15.62
2018-06-19T21:21:11.123Z,15.58
2018-06-19T21:23:41.691Z,15.53
2018-06-19T21:26:16.470Z,15.47
2018-06-19T21:28:46.207Z,15.49
2018-06-19T21:31:17.633Z,15.39
2018-06-19T21:33:47.774Z,15.39
2018-06-19T21:36:18.225Z,15.35
2018-06-19T21:38:48.103Z,15.30
2018-06-19T21:41:18.591Z,15.28
2018-06-19T21:43:48.393Z,15.28
2018-06-19T21:46:18.144Z,15.23
2018-06-19T21:48:47.873Z,15.27
2018-06-19T21:51:17.904Z,15.20
2018-06-19T21:53:48.655Z,15.21
2018-06-19T21:56:20.243Z,15.13
2018-06-19T21:58:50.031Z,15.04
2018-06-19T22:01:20.580Z,15.01
2018-06-19T22:03:50.452Z,14.86
2018-06-19T22:06:20.856Z,14.81
2018-06-19T22:08:53.615Z,14.68
2018-06-19T22:11:25.269Z,14.56
2018-06-19T22:13:56.195Z,14.57
2018-06-19T22:16:25.932Z,14.57
2018-06-19T22:18:56.628Z,14.59
2018-06-19T22:21:26.452Z,14.50
2018-06-19T22:23:56.856Z,14.44
2018-06-19T22:26:26.972Z,14.14
2018-06-19T22:28:56.990Z,13.84
2018-06-19T22:31:26.629Z,13.53
2018-06-19T22:33:56.724Z,13.64
2018-06-19T22:36:26.921Z,13.57
2018-06-19T22:38:56.877Z,13.52
2018-06-19T22:41:26.542Z,13.58
2018-06-19T22:43:57.536Z,13.57
2018-06-19T22:46:27.497Z,13.52
2018-06-19T22:48:58.207Z,13.31
2018-06-19T22:51:29.803Z,13.02
2018-06-19T22:53:59.592Z,13.03
2018-06-19T22:56:29.321Z,13.13
2018-06-19T22:59:00.077Z,13.16
2018-06-19T23:01:29.933Z,13.04
2018-06-19T23:04:00.027Z,13.09
2018-06-19T23:06:31.084Z,13.15
2018-06-19T23:09:00.865Z,13.15
2018-06-19T23:11:30.231Z,13.16
2018-06-19T23:14:00.323Z,13.08
2018-06-19T23:16:30.091Z,12.95
2018-06-19T23:18:59.484Z,12.83
2018-06-19T23:21:29.173Z,12.91
2018-06-19T23:23:59.186Z,12.91
2018-06-19T23:26:28.751Z,13.01
2018-06-19T23:28:58.813Z,13.02
2018-06-19T23:31:29.153Z,12.95
2018-06-19T23:33:59.513Z,13.07
2018-06-19T23:36:29.146Z,13.11
2018-06-19T23:38:59.430Z,13.21
2018-06-19T23:41:29.227Z,13.29
2018-06-19T23:43:58.904Z,13.31
2018-06-19T23:46:29.271Z,13.02
2018-06-19T23:48:59.506Z,12.58
2018-06-19T23:51:30.094Z,12.76
2018-06-19T23:53:59.830Z,12.89
2018-06-19T23:56:30.768Z,12.96
2018-06-19T23:59:00.563Z,12.95
